Time;durP1;ratioP1;P1;durP2;ratioP2;P2;SDS_P1;SDS_P2;PMS_P1;PMS_P2;Temp;Humidity;BMP_temperature;BMP_pressure;BME280_temperature;BME280_humidity;BME280_pressure;Samples;Min_cycle;Max_cycle;Signal;HPM_P1;HPM_P2
2022/03/02 00:01:39;;;;;;;33.80;23.35;;;;;;;;;;5103948;28;20398;-75
2022/03/02 00:04:05;;;;;;;32.78;21.85;;;;;;;;;;5099588;28;20047;-76
2022/03/02 00:06:31;;;;;;;39.35;23.90;;;;;;;;;;5108395;28;20039;-78
2022/03/02 00:08:57;;;;;;;35.95;23.73;;;;;;;;;;5110482;28;20019;-77
2022/03/02 00:11:23;;;;;;;33.72;22.40;;;;;;;;;;5101430;28;20047;-75
2022/03/02 00:13:50;;;;;;;38.72;23.48;;;;;;;;;;5083965;28;20032;-75
2022/03/02 00:16:17;;;;;;;38.50;23.83;;;;;;;;;;5094056;27;20027;-76
2022/03/02 00:18:43;;;;;;;34.75;23.25;;;;;;;;;;5089925;28;20026;-75
2022/03/02 00:21:10;;;;;;;35.90;23.83;;;;;;;;;;5111119;28;20036;-75
2022/03/02 00:23:36;;;;;;;34.75;23.83;;;;;;;;;;5104025;27;20046;-76
2022/03/02 00:26:02;;;;;;;37.92;23.33;;;;;;;;;;5111007;28;20043;-76
2022/03/02 00:28:28;;;;;;;37.95;23.35;;;;;;;;;;5103581;28;20046;-76
2022/03/02 00:30:55;;;;;;;39.00;24.95;;;;;;;;;;5098699;28;20578;-76
2022/03/02 00:33:21;;;;;;;41.17;23.73;;;;;;;;;;5101156;28;20490;-78
2022/03/02 00:35:47;;;;;;;37.85;25.17;;;;;;;;;;5105463;28;20417;-76
2022/03/02 00:38:13;;;;;;;38.17;23.35;;;;;;;;;;5105394;28;20100;-76
2022/03/02 00:40:41;;;;;;;42.20;25.48;;;;;;;;;;5109483;28;20027;-76
2022/03/02 00:43:07;;;;;;;37.22;24.20;;;;;;;;;;5096790;28;20023;-76
2022/03/02 00:45:33;;;;;;;38.65;24.75;;;;;;;;;;5105786;27;20019;-76
2022/03/02 00:48:00;;;;;;;38.30;24.58;;;;;;;;;;5102504;28;20077;-75
2022/03/02 00:50:26;;;;;;;41.58;24.45;;;;;;;;;;5092435;28;20116;-75
2022/03/02 00:52:52;;;;;;;35.20;24.00;;;;;;;;;;5109736;28;20464;-75
2022/03/02 00:55:19;;;;;;;36.35;24.33;;;;;;;;;;5102248;28;20085;-75
2022/03/02 00:57:45;;;;;;;40.40;23.85;;;;;;;;;;5100348;28;20073;-76
2022/03/02 01:00:11;;;;;;;38.30;24.77;;;;;;;;;;5111211;27;20062;-75
2022/03/02 01:02:38;;;;;;;39.03;24.23;;;;;;;;;;5103352;28;20180;-76
2022/03/02 01:05:05;;;;;;;38.95;24.90;;;;;;;;;;5108849;28;20470;-75
2022/03/02 01:07:31;;;;;;;39.08;24.67;;;;;;;;;;5118031;27;20027;-76
2022/03/02 01:09:57;;;;;;;40.00;23.38;;;;;;;;;;5106314;28;20039;-76
2022/03/02 01:12:23;;;;;;;38.42;24.05;;;;;;;;;;5094791;28;20383;-76
2022/03/02 01:14:50;;;;;;;40.10;24.60;;;;;;;;;;5113093;27;20097;-76
2022/03/02 01:17:16;;;;;;;36.67;24.17;;;;;;;;;;5100177;28;20056;-75
2022/03/02 01:19:42;;;;;;;38.70;25.70;;;;;;;;;;5098405;28;20114;-76
2022/03/02 01:22:08;;;;;;;35.13;23.25;;;;;;;;;;5098226;27;20436;-75
2022/03/02 01:24:34;;;;;;;40.63;24.85;;;;;;;;;;5111952;27;20398;-76
2022/03/02 01:27:03;;;;;;;41.95;25.83;;;;;;;;;;5094063;28;20483;-76
2022/03/02 01:29:30;;;;;;;40.85;26.63;;;;;;;;;;5103426;28;20466;-76
2022/03/02 01:31:57;;;;;;;43.40;25.48;;;;;;;;;;5092553;28;20044;-77
2022/03/02 01:34:23;;;;;;;40.95;25.20;;;;;;;;;;5085986;28;20024;-77
2022/03/02 01:36:49;;;;;;;41.97;25.40;;;;;;;;;;5092261;28;20051;-76
2022/03/02 01:39:16;;;;;;;36.25;24.10;;;;;;;;;;5102664;28;20027;-75
2022/03/02 01:41:42;;;;;;;42.08;25.15;;;;;;;;;;5077686;28;20024;-76
2022/03/02 01:44:08;;;;;;;36.95;23.73;;;;;;;;;;5107832;27;20027;-75
2022/03/02 01:46:35;;;;;;;42.15;23.98;;;;;;;;;;5086050;28;20036;-75
2022/03/02 01:49:01;;;;;;;39.03;24.75;;;;;;;;;;5109601;28;20070;-75
2022/03/02 01:51:27;;;;;;;41.97;25.15;;;;;;;;;;5096682;28;20080;-75
2022/03/02 01:53:53;;;;;;;40.50;25.70;;;;;;;;;;5098158;28;20545;-75
2022/03/02 01:56:20;;;;;;;38.97;24.98;;;;;;;;;;5100860;28;20479;-76
2022/03/02 01:58:46;;;;;;;48.03;27.10;;;;;;;;;;5110529;28;20792;-76
2022/03/02 02:01:12;;;;;;;39.50;23.92;;;;;;;;;;5102090;28;20028;-75
2022/03/02 02:03:39;;;;;;;46.00;25.48;;;;;;;;;;5078145;28;20118;-75
2022/03/02 02:06:05;;;;;;;38.58;23.85;;;;;;;;;;5098640;28;20028;-76
2022/03/02 02:08:32;;;;;;;40.88;25.35;;;;;;;;;;5094846;28;20506;-76
2022/03/02 02:10:59;;;;;;;40.95;25.05;;;;;;;;;;5098768;28;20111;-75
2022/03/02 02:13:26;;;;;;;45.47;26.20;;;;;;;;;;5110340;27;20054;-75
2022/03/02 02:15:53;;;;;;;43.55;26.27;;;;;;;;;;5099731;28;20591;-75
2022/03/02 02:18:19;;;;;;;42.88;26.00;;;;;;;;;;5102136;27;20356;-76
2022/03/02 02:20:45;;;;;;;40.60;26.13;;;;;;;;;;5110063;28;20115;-75
2022/03/02 02:23:12;;;;;;;41.58;25.88;;;;;;;;;;5100642;28;20388;-75
2022/03/02 02:25:38;;;;;;;43.63;27.00;;;;;;;;;;5104189;28;20091;-75
2022/03/02 02:28:06;;;;;;;40.78;25.25;;;;;;;;;;5096711;28;20551;-77
2022/03/02 02:30:32;;;;;;;43.40;26.25;;;;;;;;;;5096594;28;20479;-76
2022/03/02 02:32:58;;;;;;;47.50;25.02;;;;;;;;;;5093017;28;20123;-75
2022/03/02 02:35:27;;;;;;;43.45;27.20;;;;;;;;;;5102555;28;20147;-76
2022/03/02 02:37:54;;;;;;;40.17;24.67;;;;;;;;;;5091666;28;20132;-75
2022/03/02 02:40:21;;;;;;;47.50;27.13;;;;;;;;;;5101639;28;20044;-75
2022/03/02 02:42:48;;;;;;;47.15;25.98;;;;;;;;;;5104668;28;20110;-76
2022/03/02 02:45:15;;;;;;;46.22;25.75;;;;;;;;;;5101720;28;20036;-75
2022/03/02 02:47:42;;;;;;;43.38;27.35;;;;;;;;;;5098058;28;20058;-75
2022/03/02 02:50:24;;;;;;;51.80;28.40;;;;;;;;;;5097658;28;20044;-76
2022/03/02 02:52:51;;;;;;;40.30;26.00;;;;;;;;;;5085235;28;20098;-75
2022/03/02 02:55:18;;;;;;;42.40;26.95;;;;;;;;;;5100664;28;20509;-75
2022/03/02 02:57:44;;;;;;;44.78;26.70;;;;;;;;;;5105093;28;20394;-75
2022/03/02 03:00:12;;;;;;;41.72;25.70;;;;;;;;;;5105701;28;20058;-75
2022/03/02 03:02:38;;;;;;;42.22;26.75;;;;;;;;;;5102753;28;20034;-75
2022/03/02 03:05:05;;;;;;;42.75;25.88;;;;;;;;;;5098756;28;20024;-75
2022/03/02 03:07:31;;;;;;;46.38;28.08;;;;;;;;;;5100727;28;20032;-75
2022/03/02 03:09:57;;;;;;;44.95;27.27;;;;;;;;;;5093986;28;20494;-75
2022/03/02 03:12:23;;;;;;;41.95;25.85;;;;;;;;;;5099240;28;20031;-76
2022/03/02 03:14:49;;;;;;;43.65;27.15;;;;;;;;;;5110214;27;20047;-75
2022/03/02 03:17:15;;;;;;;46.08;27.38;;;;;;;;;;5107513;27;20019;-76
2022/03/02 03:19:41;;;;;;;45.83;28.15;;;;;;;;;;5109516;27;20027;-75
2022/03/02 03:22:07;;;;;;;44.72;26.40;;;;;;;;;;5096791;28;20028;-75
2022/03/02 03:24:34;;;;;;;47.92;28.35;;;;;;;;;;5101783;28;20028;-76
2022/03/02 03:27:01;;;;;;;43.45;27.10;;;;;;;;;;5098872;28;20017;-75
2022/03/02 03:29:27;;;;;;;47.72;28.20;;;;;;;;;;5106335;28;20020;-76
2022/03/02 03:31:53;;;;;;;48.22;28.30;;;;;;;;;;5096628;28;20112;-76
2022/03/02 03:34:19;;;;;;;47.70;28.52;;;;;;;;;;5106259;28;20040;-75
2022/03/02 03:36:45;;;;;;;44.00;27.55;;;;;;;;;;5111537;28;20032;-76
2022/03/02 03:39:11;;;;;;;46.78;28.27;;;;;;;;;;5090424;28;20031;-75
2022/03/02 03:41:37;;;;;;;44.83;28.25;;;;;;;;;;5104590;28;20035;-76
2022/03/02 03:44:03;;;;;;;46.33;28.58;;;;;;;;;;5095890;28;20031;-76
2022/03/02 03:46:29;;;;;;;48.85;28.65;;;;;;;;;;5096528;28;20056;-75
2022/03/02 03:48:55;;;;;;;49.15;28.83;;;;;;;;;;5088415;28;20031;-76
2022/03/02 03:51:23;;;;;;;43.33;28.38;;;;;;;;;;5096459;28;20040;-76
2022/03/02 03:53:49;;;;;;;47.55;28.50;;;;;;;;;;5102437;28;20036;-77
2022/03/02 03:56:15;;;;;;;51.08;28.23;;;;;;;;;;5110650;28;20036;-75
2022/03/02 03:58:41;;;;;;;51.10;29.10;;;;;;;;;;5084130;28;20028;-76
2022/03/02 04:01:07;;;;;;;48.38;29.23;;;;;;;;;;5106205;28;20506;-76
2022/03/02 04:03:35;;;;;;;49.17;30.08;;;;;;;;;;5097319;28;20107;-76
2022/03/02 04:06:01;;;;;;;50.08;29.77;;;;;;;;;;5101323;27;20471;-76
2022/03/02 04:08:27;;;;;;;53.53;31.10;;;;;;;;;;5112168;28;20448;-75
2022/03/02 04:10:53;;;;;;;50.00;31.33;;;;;;;;;;5082892;28;20035;-76
2022/03/02 04:13:19;;;;;;;57.35;31.00;;;;;;;;;;5105334;27;20452;-76
2022/03/02 04:15:46;;;;;;;48.58;28.27;;;;;;;;;;5102643;28;20019;-77
2022/03/02 04:18:12;;;;;;;53.35;30.48;;;;;;;;;;5105684;28;20028;-76
2022/03/02 04:20:38;;;;;;;53.53;31.58;;;;;;;;;;5080278;28;20445;-76
2022/03/02 04:23:05;;;;;;;55.08;31.48;;;;;;;;;;5100548;28;20027;-76
2022/03/02 04:25:32;;;;;;;53.50;31.08;;;;;;;;;;5103143;28;20038;-77
2022/03/02 04:27:58;;;;;;;54.85;30.65;;;;;;;;;;5094406;28;20468;-76
2022/03/02 04:30:25;;;;;;;56.75;31.58;;;;;;;;;;5080257;28;20085;-76
2022/03/02 04:32:51;;;;;;;58.88;31.55;;;;;;;;;;5102575;28;20096;-76
2022/03/02 04:35:17;;;;;;;56.05;31.63;;;;;;;;;;5103308;28;20380;-76
2022/03/02 04:37:43;;;;;;;55.45;30.98;;;;;;;;;;5106159;28;20028;-76
2022/03/02 04:40:11;;;;;;;53.08;31.00;;;;;;;;;;5107480;28;20069;-76
2022/03/02 04:42:37;;;;;;;58.42;32.15;;;;;;;;;;5103629;28;21051;-76
2022/03/02 04:45:04;;;;;;;57.85;32.60;;;;;;;;;;5105485;28;20446;-77
2022/03/02 04:47:30;;;;;;;55.88;30.45;;;;;;;;;;5097354;28;20066;-78
2022/03/02 04:49:56;;;;;;;58.58;32.17;;;;;;;;;;5100625;28;20043;-76
2022/03/02 04:52:22;;;;;;;53.78;32.58;;;;;;;;;;5094203;28;20097;-75
2022/03/02 04:55:06;;;;;;;55.50;31.90;;;;;;;;;;5101905;28;20024;-76
2022/03/02 04:57:42;;;;;;;55.05;32.78;;;;;;;;;;5098490;28;20023;-77
2022/03/02 05:00:10;;;;;;;56.70;31.75;;;;;;;;;;5096837;28;20043;-76
2022/03/02 05:02:37;;;;;;;59.05;31.35;;;;;;;;;;5104875;28;20471;-75
2022/03/02 05:05:03;;;;;;;61.78;33.42;;;;;;;;;;5096375;28;20039;-75
2022/03/02 05:07:29;;;;;;;62.90;34.25;;;;;;;;;;5086525;28;20501;-75
2022/03/02 05:09:55;;;;;;;59.88;33.50;;;;;;;;;;5108472;27;20468;-76
2022/03/02 05:12:21;;;;;;;56.90;32.08;;;;;;;;;;5110165;28;20475;-75
2022/03/02 05:14:48;;;;;;;65.70;33.72;;;;;;;;;;5088286;28;20020;-75
2022/03/02 05:17:14;;;;;;;59.47;33.72;;;;;;;;;;5088411;28;20032;-75
2022/03/02 05:19:40;;;;;;;64.30;33.55;;;;;;;;;;5095830;27;20028;-75
2022/03/02 05:22:06;;;;;;;59.42;33.72;;;;;;;;;;5108189;28;20040;-75
2022/03/02 05:24:32;;;;;;;63.40;35.33;;;;;;;;;;5097968;28;20059;-75
2022/03/02 05:26:59;;;;;;;63.28;33.95;;;;;;;;;;5103446;28;20480;-76
2022/03/02 05:29:25;;;;;;;61.85;34.38;;;;;;;;;;5096204;28;20606;-76
2022/03/02 05:31:51;;;;;;;65.13;35.63;;;;;;;;;;5104354;28;20127;-77
2022/03/02 05:34:17;;;;;;;63.33;32.90;;;;;;;;;;5111990;28;20447;-75
2022/03/02 05:36:43;;;;;;;65.63;33.53;;;;;;;;;;5081662;28;20024;-75
2022/03/02 05:39:09;;;;;;;65.03;32.92;;;;;;;;;;5100743;28;20120;-76
2022/03/02 05:41:35;;;;;;;65.75;35.65;;;;;;;;;;5110989;27;20127;-75
2022/03/02 05:44:02;;;;;;;68.35;36.38;;;;;;;;;;5099672;28;20046;-74
2022/03/02 05:46:28;;;;;;;60.20;33.47;;;;;;;;;;5085399;28;20107;-75
2022/03/02 05:48:54;;;;;;;61.60;34.50;;;;;;;;;;5100392;28;20414;-76
2022/03/02 05:51:21;;;;;;;60.95;35.30;;;;;;;;;;5103817;28;20122;-74
2022/03/02 05:53:47;;;;;;;68.38;35.15;;;;;;;;;;5101835;28;20077;-74
2022/03/02 05:56:13;;;;;;;61.08;35.28;;;;;;;;;;5098111;28;20429;-74
2022/03/02 05:58:39;;;;;;;64.10;33.20;;;;;;;;;;5098023;28;20044;-74
2022/03/02 06:01:05;;;;;;;64.90;37.17;;;;;;;;;;5099560;28;20028;-76
2022/03/02 06:03:32;;;;;;;67.03;36.28;;;;;;;;;;5106036;27;20077;-75
2022/03/02 06:05:58;;;;;;;63.42;35.05;;;;;;;;;;5096180;28;20028;-75
2022/03/02 06:08:24;;;;;;;62.10;36.20;;;;;;;;;;5098863;28;20028;-76
2022/03/02 06:10:50;;;;;;;65.70;34.80;;;;;;;;;;5098449;27;20072;-75
2022/03/02 06:13:16;;;;;;;61.25;33.80;;;;;;;;;;5102783;28;20043;-74
2022/03/02 06:15:43;;;;;;;63.00;34.08;;;;;;;;;;5103376;28;20764;-75
2022/03/02 06:18:09;;;;;;;63.00;33.55;;;;;;;;;;5098943;28;20468;-75
2022/03/02 06:20:35;;;;;;;64.13;34.00;;;;;;;;;;5098315;28;20089;-75
2022/03/02 06:23:02;;;;;;;62.20;33.35;;;;;;;;;;5105784;28;20519;-73
2022/03/02 06:25:28;;;;;;;65.85;35.28;;;;;;;;;;5094948;28;20059;-73
2022/03/02 06:27:54;;;;;;;58.50;33.80;;;;;;;;;;5100751;28;20016;-73
2022/03/02 06:30:21;;;;;;;58.53;32.50;;;;;;;;;;5106178;28;20108;-73
2022/03/02 06:32:47;;;;;;;61.42;33.03;;;;;;;;;;5230464;22;20067;-74
2022/03/02 06:35:13;;;;;;;58.15;31.20;;;;;;;;;;5083827;28;20368;-74
2022/03/02 06:37:39;;;;;;;57.72;31.88;;;;;;;;;;5072126;28;20387;-75
2022/03/02 06:40:08;;;;;;;73.20;39.63;;;;;;;;;;5077313;28;20028;-75
2022/03/02 06:42:40;;;;;;;76.63;43.28;;;;;;;;;;5076506;28;20036;-74
2022/03/02 06:45:14;;;;;;;59.00;34.00;;;;;;;;;;5068175;28;20020;-74
2022/03/02 06:47:46;;;;;;;60.78;34.05;;;;;;;;;;5086638;28;20024;-74
2022/03/02 06:50:13;;;;;;;60.85;33.88;;;;;;;;;;5075761;28;20037;-73
2022/03/02 06:52:40;;;;;;;56.63;33.50;;;;;;;;;;5084354;28;20035;-74
2022/03/02 06:55:11;;;;;;;62.60;34.28;;;;;;;;;;5081740;28;20034;-74
2022/03/02 06:57:37;;;;;;;58.90;32.00;;;;;;;;;;5090403;28;20487;-74
2022/03/02 07:00:16;;;;;;;57.65;30.95;;;;;;;;;;5081347;28;20040;-73
2022/03/02 07:02:48;;;;;;;62.92;33.50;;;;;;;;;;5085933;28;20467;-75
2022/03/02 07:05:15;;;;;;;59.05;32.83;;;;;;;;;;5090407;28;20032;-75
2022/03/02 07:07:41;;;;;;;56.53;32.35;;;;;;;;;;5090447;28;20440;-75
2022/03/02 07:10:08;;;;;;;59.17;31.92;;;;;;;;;;5090289;28;20487;-74
2022/03/02 07:12:34;;;;;;;60.63;34.92;;;;;;;;;;5088224;28;20040;-74
2022/03/02 07:15:00;;;;;;;53.78;32.85;;;;;;;;;;5090091;28;20156;-74
2022/03/02 07:17:27;;;;;;;64.22;33.42;;;;;;;;;;5084285;28;20020;-74
2022/03/02 07:19:53;;;;;;;57.95;31.77;;;;;;;;;;5072503;28;20077;-74
2022/03/02 07:22:22;;;;;;;64.93;35.58;;;;;;;;;;5082700;28;20059;-78
2022/03/02 07:24:53;;;;;;;66.38;35.60;;;;;;;;;;5089822;28;20081;-72
2022/03/02 07:27:19;;;;;;;58.88;33.72;;;;;;;;;;5099411;28;20054;-74
2022/03/02 07:29:48;;;;;;;55.60;32.00;;;;;;;;;;5084857;28;20032;-74
2022/03/02 07:32:15;;;;;;;49.70;29.48;;;;;;;;;;5088406;28;20032;-74
2022/03/02 07:34:45;;;;;;;60.13;32.10;;;;;;;;;;5103902;28;20054;-74
2022/03/02 07:37:11;;;;;;;52.00;29.95;;;;;;;;;;5106128;27;20039;-74
2022/03/02 07:39:37;;;;;;;50.67;30.27;;;;;;;;;;5112847;28;20016;-75
2022/03/02 07:42:03;;;;;;;48.30;28.27;;;;;;;;;;5105773;27;20024;-73
2022/03/02 07:44:29;;;;;;;56.53;30.85;;;;;;;;;;5102478;28;20046;-74
2022/03/02 07:46:55;;;;;;;57.45;30.70;;;;;;;;;;5113485;27;20367;-74
2022/03/02 07:49:22;;;;;;;57.50;33.75;;;;;;;;;;5103839;28;20032;-75
2022/03/02 07:51:51;;;;;;;56.95;31.27;;;;;;;;;;5089850;28;20049;-77
2022/03/02 07:54:17;;;;;;;48.97;29.33;;;;;;;;;;5103118;27;20032;-73
2022/03/02 07:56:44;;;;;;;48.40;29.55;;;;;;;;;;5107195;28;20507;-73
2022/03/02 07:59:10;;;;;;;51.92;29.23;;;;;;;;;;5112238;28;20356;-73
2022/03/02 08:01:37;;;;;;;51.78;29.38;;;;;;;;;;5104161;27;20028;-74
2022/03/02 08:04:07;;;;;;;50.97;30.48;;;;;;;;;;5084111;28;20015;-73
2022/03/02 08:06:38;;;;;;;42.30;27.75;;;;;;;;;;5110800;28;20107;-73
2022/03/02 08:09:05;;;;;;;46.58;28.30;;;;;;;;;;5109601;27;20035;-73
2022/03/02 08:11:32;;;;;;;45.60;28.70;;;;;;;;;;5110772;28;20032;-74
2022/03/02 08:13:59;;;;;;;45.67;29.13;;;;;;;;;;5084280;28;20434;-73
2022/03/02 08:16:26;;;;;;;50.83;29.10;;;;;;;;;;5111111;28;20443;-74
2022/03/02 08:18:52;;;;;;;48.78;28.33;;;;;;;;;;5099092;27;20410;-75
2022/03/02 08:21:19;;;;;;;43.45;26.35;;;;;;;;;;5085704;28;20085;-75
2022/03/02 08:23:45;;;;;;;41.28;27.40;;;;;;;;;;5106602;28;20105;-74
2022/03/02 08:26:13;;;;;;;42.38;26.15;;;;;;;;;;5098334;28;20032;-74
2022/03/02 08:28:41;;;;;;;43.65;27.45;;;;;;;;;;5085950;28;20035;-74
2022/03/02 08:31:07;;;;;;;51.28;32.17;;;;;;;;;;5113788;27;20055;-75
2022/03/02 08:33:35;;;;;;;60.05;35.20;;;;;;;;;;5102699;28;20483;-74
2022/03/02 08:36:02;;;;;;;42.78;26.25;;;;;;;;;;5110227;28;21098;-74
2022/03/02 08:38:28;;;;;;;44.38;27.38;;;;;;;;;;5098182;28;20024;-73
2022/03/02 08:40:54;;;;;;;41.20;26.38;;;;;;;;;;5109446;27;20047;-73
2022/03/02 08:43:20;;;;;;;44.10;27.48;;;;;;;;;;5098312;28;20075;-74
2022/03/02 08:45:47;;;;;;;44.55;25.75;;;;;;;;;;5097963;27;20024;-75
2022/03/02 08:48:17;;;;;;;42.92;26.92;;;;;;;;;;5108515;28;20111;-74
2022/03/02 08:50:44;;;;;;;41.28;25.90;;;;;;;;;;5097931;27;20136;-76
2022/03/02 08:53:15;;;;;;;89.57;50.63;;;;;;;;;;5100154;28;20024;-76
2022/03/02 08:55:41;;;;;;;58.15;33.90;;;;;;;;;;5103327;28;20475;-75
2022/03/02 08:58:08;;;;;;;37.05;24.42;;;;;;;;;;5109222;27;20031;-74
2022/03/02 09:00:34;;;;;;;41.95;26.17;;;;;;;;;;5101927;28;20036;-75
2022/03/02 09:03:02;;;;;;;42.63;27.77;;;;;;;;;;5095737;28;20032;-74
2022/03/02 09:05:28;;;;;;;40.17;26.42;;;;;;;;;;5103375;28;20032;-77
2022/03/02 09:07:55;;;;;;;39.80;25.25;;;;;;;;;;5111491;27;20483;-75
2022/03/02 09:10:22;;;;;;;41.78;25.27;;;;;;;;;;5098974;27;20032;-75
2022/03/02 09:12:49;;;;;;;40.05;25.90;;;;;;;;;;5096553;28;20023;-76
2022/03/02 09:15:16;;;;;;;37.15;24.67;;;;;;;;;;5090097;28;20032;-75
2022/03/02 09:17:42;;;;;;;40.03;25.45;;;;;;;;;;5100339;28;20539;-75
2022/03/02 09:20:09;;;;;;;42.15;28.13;;;;;;;;;;5108482;28;20402;-75
2022/03/02 09:22:36;;;;;;;39.88;25.42;;;;;;;;;;5090856;28;20433;-75
2022/03/02 09:25:03;;;;;;;34.78;24.13;;;;;;;;;;5102918;27;20020;-75
2022/03/02 09:27:31;;;;;;;35.47;23.73;;;;;;;;;;5101881;28;20027;-75
2022/03/02 09:29:58;;;;;;;38.10;24.45;;;;;;;;;;5103987;27;20039;-75
2022/03/02 09:32:25;;;;;;;36.80;24.10;;;;;;;;;;5094717;28;20241;-75
2022/03/02 09:34:53;;;;;;;34.47;23.60;;;;;;;;;;5091998;28;20024;-75
2022/03/02 09:37:22;;;;;;;37.53;25.05;;;;;;;;;;5078078;28;20028;-75
2022/03/02 09:39:50;;;;;;;33.80;23.85;;;;;;;;;;5082980;28;20027;-75
2022/03/02 09:42:27;;;;;;;38.15;24.42;;;;;;;;;;5099092;28;20106;-75
2022/03/02 09:44:58;;;;;;;33.42;22.95;;;;;;;;;;5087108;28;20028;-75
2022/03/02 09:47:27;;;;;;;35.58;23.90;;;;;;;;;;5093918;28;20031;-74
2022/03/02 09:49:55;;;;;;;34.55;23.33;;;;;;;;;;5104047;28;20020;-75
2022/03/02 09:52:21;;;;;;;34.15;22.92;;;;;;;;;;5107021;28;20039;-74
2022/03/02 09:54:51;;;;;;;36.42;24.98;;;;;;;;;;5101137;28;20471;-75
2022/03/02 09:57:18;;;;;;;34.78;22.80;;;;;;;;;;5098132;28;20027;-74
2022/03/02 09:59:48;;;;;;;38.97;22.58;;;;;;;;;;5090914;28;20042;-75
2022/03/02 10:02:18;;;;;;;37.95;24.05;;;;;;;;;;5106071;27;20122;-74
2022/03/02 10:04:51;;;;;;;36.15;22.25;;;;;;;;;;5100147;28;20027;-75
2022/03/02 10:07:29;;;;;;;37.55;22.48;;;;;;;;;;5103979;28;20368;-76
2022/03/02 10:10:06;;;;;;;30.58;21.27;;;;;;;;;;5104767;28;20024;-75
2022/03/02 10:12:32;;;;;;;35.20;21.15;;;;;;;;;;5108226;28;20479;-75
2022/03/02 10:14:59;;;;;;;36.03;22.63;;;;;;;;;;5101842;27;20024;-74
2022/03/02 10:17:31;;;;;;;30.67;22.08;;;;;;;;;;5098844;28;20031;-74
2022/03/02 10:20:00;;;;;;;30.23;22.02;;;;;;;;;;5092963;28;20028;-74
2022/03/02 10:22:26;;;;;;;27.98;20.40;;;;;;;;;;5103104;28;20058;-75
2022/03/02 10:25:00;;;;;;;30.77;21.63;;;;;;;;;;5102335;28;20072;-76
2022/03/02 10:27:40;;;;;;;28.45;19.65;;;;;;;;;;5098418;28;20084;-75
2022/03/02 10:30:08;;;;;;;29.55;20.98;;;;;;;;;;5107667;28;20027;-75
2022/03/02 10:32:37;;;;;;;31.25;21.20;;;;;;;;;;5090434;28;20041;-75
2022/03/02 10:35:05;;;;;;;27.92;20.95;;;;;;;;;;5100776;28;20028;-74
2022/03/02 10:37:36;;;;;;;28.70;21.23;;;;;;;;;;5101921;28;20028;-75
2022/03/02 10:40:15;;;;;;;29.05;20.80;;;;;;;;;;5105399;28;20396;-75
2022/03/02 10:42:57;;;;;;;35.92;23.73;;;;;;;;;;5100207;28;20035;-78
2022/03/02 10:45:40;;;;;;;29.60;20.80;;;;;;;;;;5093898;28;20035;-77
2022/03/02 10:48:13;;;;;;;26.05;20.13;;;;;;;;;;5108011;28;20065;-77
2022/03/02 10:50:40;;;;;;;27.45;20.10;;;;;;;;;;5104828;28;20065;-75
2022/03/02 10:53:11;;;;;;;26.40;18.15;;;;;;;;;;5091013;28;20027;-76
2022/03/02 10:55:38;;;;;;;29.83;20.08;;;;;;;;;;5097666;28;20541;-75
2022/03/02 10:58:06;;;;;;;26.92;19.63;;;;;;;;;;5100118;28;20028;-76
2022/03/02 11:00:32;;;;;;;24.05;18.27;;;;;;;;;;5107087;28;20035;-74
2022/03/02 11:02:59;;;;;;;25.45;18.83;;;;;;;;;;5104526;28;20029;-74
2022/03/02 11:05:26;;;;;;;26.02;19.08;;;;;;;;;;5101026;28;20020;-74
2022/03/02 11:07:54;;;;;;;25.20;19.13;;;;;;;;;;5098651;28;20442;-74
2022/03/02 11:10:21;;;;;;;27.27;19.77;;;;;;;;;;5117325;28;20060;-75
2022/03/02 11:12:48;;;;;;;28.55;19.40;;;;;;;;;;5094357;28;20054;-74
2022/03/02 11:15:14;;;;;;;27.98;19.98;;;;;;;;;;5098035;28;20024;-73
2022/03/02 11:17:57;;;;;;;26.58;19.17;;;;;;;;;;5091511;28;20035;-74
2022/03/02 11:20:24;;;;;;;27.10;19.30;;;;;;;;;;5097759;28;20559;-74
2022/03/02 11:23:02;;;;;;;26.92;19.90;;;;;;;;;;5107834;28;20024;-73
2022/03/02 11:25:51;;;;;;;27.55;19.45;;;;;;;;;;5092427;28;20427;-73
2022/03/02 11:28:18;;;;;;;28.23;18.77;;;;;;;;;;5102971;28;20442;-74
2022/03/02 11:30:48;;;;;;;27.33;18.35;;;;;;;;;;5104859;28;20152;-77
2022/03/02 11:33:15;;;;;;;28.15;18.25;;;;;;;;;;5105972;28;20061;-74
2022/03/02 11:35:43;;;;;;;28.55;18.33;;;;;;;;;;5109634;27;20458;-73
2022/03/02 11:38:10;;;;;;;26.65;19.10;;;;;;;;;;5110485;28;20020;-75
2022/03/02 11:40:41;;;;;;;32.20;21.90;;;;;;;;;;5105896;27;20027;-75
2022/03/02 11:43:16;;;;;;;31.30;20.75;;;;;;;;;;5105142;27;20015;-75
2022/03/02 11:45:42;;;;;;;26.05;19.55;;;;;;;;;;5109253;28;20034;-72
2022/03/02 11:48:13;;;;;;;26.30;17.65;;;;;;;;;;5100259;28;20402;-72
2022/03/02 11:50:59;;;;;;;28.25;17.25;;;;;;;;;;5107045;28;20085;-73
2022/03/02 11:53:32;;;;;;;32.83;17.80;;;;;;;;;;5113773;27;20032;-73
2022/03/02 11:56:00;;;;;;;28.52;18.42;;;;;;;;;;5107000;27;20146;-72
2022/03/02 11:58:26;;;;;;;27.55;18.67;;;;;;;;;;5104037;28;20026;-72
2022/03/02 12:00:52;;;;;;;100.00;56.72;;;;;;;;;;5109500;27;20069;-73
2022/03/02 12:03:18;;;;;;;36.50;22.50;;;;;;;;;;5083617;28;20031;-73
2022/03/02 12:05:44;;;;;;;28.95;19.02;;;;;;;;;;5108023;28;20035;-76
2022/03/02 12:08:16;;;;;;;23.70;17.02;;;;;;;;;;5085907;28;20036;-75
2022/03/02 12:10:44;;;;;;;28.27;19.45;;;;;;;;;;5111455;28;20036;-74
2022/03/02 12:13:16;;;;;;;28.55;18.70;;;;;;;;;;5098196;28;20032;-74
2022/03/02 12:15:42;;;;;;;25.85;17.98;;;;;;;;;;5087980;27;20027;-74
2022/03/02 12:18:10;;;;;;;25.75;17.58;;;;;;;;;;5112570;28;20028;-73
2022/03/02 12:20:44;;;;;;;27.73;18.35;;;;;;;;;;5096478;28;20028;-74
2022/03/02 12:23:10;;;;;;;28.50;18.80;;;;;;;;;;5109062;28;20023;-75
2022/03/02 12:25:42;;;;;;;29.40;19.17;;;;;;;;;;5094188;28;20028;-74
2022/03/02 12:28:09;;;;;;;27.42;18.33;;;;;;;;;;5101480;28;20030;-75
2022/03/02 12:30:36;;;;;;;26.23;18.75;;;;;;;;;;5096574;28;20049;-74
2022/03/02 12:33:03;;;;;;;38.45;18.67;;;;;;;;;;5107866;27;20113;-75
2022/03/02 12:35:29;;;;;;;28.15;19.38;;;;;;;;;;5110378;27;20495;-75
2022/03/02 12:37:56;;;;;;;27.75;17.67;;;;;;;;;;5093909;28;20039;-76
2022/03/02 12:40:28;;;;;;;24.95;17.15;;;;;;;;;;5104240;28;20038;-75
2022/03/02 12:42:55;;;;;;;26.05;17.30;;;;;;;;;;5103824;28;20355;-75
2022/03/02 12:45:21;;;;;;;25.88;17.52;;;;;;;;;;5096097;28;20077;-75
2022/03/02 12:47:47;;;;;;;25.88;17.58;;;;;;;;;;5108425;27;20467;-76
2022/03/02 12:50:15;;;;;;;25.25;16.92;;;;;;;;;;5109135;28;20062;-75
2022/03/02 12:52:42;;;;;;;29.58;17.15;;;;;;;;;;5101224;27;20038;-75
2022/03/02 12:55:10;;;;;;;26.58;17.77;;;;;;;;;;5103754;28;20380;-75
2022/03/02 12:57:37;;;;;;;23.77;15.60;;;;;;;;;;5105471;28;20023;-75
2022/03/02 13:00:11;;;;;;;25.20;16.10;;;;;;;;;;5106861;27;20028;-76
2022/03/02 13:02:37;;;;;;;29.95;16.52;;;;;;;;;;5097733;28;20015;-75
2022/03/02 13:05:07;;;;;;;27.80;16.05;;;;;;;;;;5109176;27;20031;-75
2022/03/02 13:07:53;;;;;;;22.98;15.38;;;;;;;;;;5102605;28;20055;-78
2022/03/02 13:10:24;;;;;;;23.45;15.35;;;;;;;;;;5070707;28;20480;-74
2022/03/02 13:12:54;;;;;;;23.83;15.57;;;;;;;;;;5101628;27;20032;-75
2022/03/02 13:15:35;;;;;;;25.23;15.95;;;;;;;;;;5107563;28;20141;-75
2022/03/02 13:18:11;;;;;;;22.38;15.85;;;;;;;;;;5094575;27;20032;-75
2022/03/02 13:20:41;;;;;;;25.70;16.75;;;;;;;;;;5097983;28;20024;-75
2022/03/02 13:23:15;;;;;;;25.80;17.42;;;;;;;;;;5109061;28;20027;-75
2022/03/02 13:26:01;;;;;;;25.52;15.77;;;;;;;;;;5108077;28;20039;-76
2022/03/02 13:28:31;;;;;;;25.85;16.67;;;;;;;;;;5103470;28;20538;-75
2022/03/02 13:31:06;;;;;;;26.13;16.90;;;;;;;;;;5108414;28;20031;-75
2022/03/02 13:33:51;;;;;;;26.95;16.52;;;;;;;;;;5104070;28;20052;-73
2022/03/02 13:36:37;;;;;;;25.65;15.82;;;;;;;;;;5105968;27;20028;-73
2022/03/02 13:39:09;;;;;;;23.85;15.55;;;;;;;;;;5095369;28;20100;-73
2022/03/02 13:41:43;;;;;;;24.20;17.08;;;;;;;;;;5097566;28;20479;-74
2022/03/02 13:44:21;;;;;;;23.63;16.42;;;;;;;;;;5098841;28;20084;-74
2022/03/02 13:47:07;;;;;;;22.75;16.52;;;;;;;;;;5108616;28;20116;-74
2022/03/02 13:49:53;;;;;;;25.08;16.83;;;;;;;;;;5107303;27;20077;-74
2022/03/02 13:52:28;;;;;;;24.45;16.45;;;;;;;;;;5101400;28;20477;-75
2022/03/02 13:54:57;;;;;;;27.08;16.10;;;;;;;;;;5109959;27;20090;-75
2022/03/02 13:57:25;;;;;;;23.20;16.10;;;;;;;;;;5100169;27;20107;-74
2022/03/02 14:00:09;;;;;;;25.02;17.13;;;;;;;;;;5081498;28;20028;-74
2022/03/02 14:02:36;;;;;;;30.85;19.70;;;;;;;;;;5091468;28;20039;-75
2022/03/02 14:05:02;;;;;;;32.63;20.83;;;;;;;;;;5102277;27;20110;-81
2022/03/02 14:07:30;;;;;;;25.63;17.45;;;;;;;;;;5109814;28;20035;-74
2022/03/02 14:10:10;;;;;;;27.25;18.13;;;;;;;;;;5102064;28;20030;-75
2022/03/02 14:12:57;;;;;;;22.80;15.85;;;;;;;;;;5101298;27;20036;-77
2022/03/02 14:15:26;;;;;;;20.70;15.38;;;;;;;;;;5099216;28;20043;-75
2022/03/02 14:17:52;;;;;;;22.70;16.65;;;;;;;;;;5102440;28;20019;-74
2022/03/02 14:20:25;;;;;;;24.05;16.38;;;;;;;;;;5100455;28;20499;-75
2022/03/02 14:23:19;;;;;;;26.25;17.08;;;;;;;;;;5102757;28;20157;-76